Time;durP1;ratioP1;P1;durP2;ratioP2;P2;SDS_P1;SDS_P2;PMS_P1;PMS_P2;Temp;Humidity;BMP_temperature;BMP_pressure;BME280_temperature;BME280_humidity;BME280_pressure;Samples;Min_cycle;Max_cycle;Signal;HPM_P1;HPM_P2
2023/08/10 00:01:18;;;;;;;4.68;1.98;;;15.20;99.90;;;;;;5065181;28;20039;-73
2023/08/10 00:03:44;;;;;;;4.88;2.35;;;15.10;99.90;;;;;;5059482;28;20042;-73
2023/08/10 00:06:11;;;;;;;5.55;2.55;;;15.10;99.90;;;;;;5091869;28;20028;-73
2023/08/10 00:08:37;;;;;;;6.00;2.55;;;15.00;99.90;;;;;;5065547;28;20542;-74
2023/08/10 00:11:04;;;;;;;5.25;1.92;;;14.90;99.90;;;;;;5090642;28;20035;-73
2023/08/10 00:13:29;;;;;;;5.95;2.28;;;14.90;99.90;;;;;;5075126;28;20040;-73
2023/08/10 00:15:55;;;;;;;6.05;2.25;;;14.90;99.90;;;;;;5090762;28;20039;-73
2023/08/10 00:18:21;;;;;;;6.07;2.53;;;14.80;99.90;;;;;;5087551;28;20095;-73
2023/08/10 00:20:46;;;;;;;4.57;2.05;;;14.80;99.90;;;;;;5091199;28;20085;-74
2023/08/10 00:23:12;;;;;;;6.35;2.40;;;14.80;99.90;;;;;;5089748;28;20036;-73
2023/08/10 00:25:37;;;;;;;4.18;2.03;;;14.80;99.90;;;;;;5074275;28;20032;-73
2023/08/10 00:28:04;;;;;;;4.93;1.90;;;14.70;99.90;;;;;;5090562;28;20036;-73
2023/08/10 00:30:29;;;;;;;6.30;2.28;;;14.60;99.90;;;;;;5088705;28;20046;-72
2023/08/10 00:32:56;;;;;;;4.82;2.25;;;14.60;99.90;;;;;;5090549;28;20028;-73
2023/08/10 00:35:24;;;;;;;4.93;2.45;;;14.60;99.90;;;;;;5089844;28;20032;-73
2023/08/10 00:37:50;;;;;;;6.85;2.38;;;14.60;99.90;;;;;;5089440;28;20064;-73
2023/08/10 00:40:16;;;;;;;6.32;2.58;;;14.50;99.90;;;;;;5089130;28;20060;-73
2023/08/10 00:42:41;;;;;;;6.80;2.38;;;14.50;99.90;;;;;;5089990;28;20054;-73
2023/08/10 00:45:09;;;;;;;7.47;2.45;;;14.50;99.90;;;;;;5074453;28;20119;-73
2023/08/10 00:47:35;;;;;;;6.10;2.20;;;14.40;99.90;;;;;;5074783;28;20059;-73
2023/08/10 00:50:02;;;;;;;8.32;3.90;;;14.40;99.90;;;;;;5087321;28;20079;-74
2023/08/10 00:52:28;;;;;;;5.00;2.03;;;14.40;99.90;;;;;;5088969;28;20078;-74
2023/08/10 00:54:54;;;;;;;6.18;2.30;;;14.40;99.90;;;;;;5088711;28;20059;-73
2023/08/10 00:57:20;;;;;;;6.95;2.65;;;14.40;99.90;;;;;;5087752;28;20491;-73
2023/08/10 00:59:47;;;;;;;8.10;2.72;;;14.40;99.90;;;;;;5071572;28;20040;-73
2023/08/10 01:02:12;;;;;;;8.48;2.30;;;14.50;99.90;;;;;;5072426;28;20072;-73
2023/08/10 01:04:39;;;;;;;6.15;2.35;;;14.50;99.90;;;;;;5070585;28;20624;-73
2023/08/10 01:07:19;;;;;;;4.38;2.30;;;14.50;99.90;;;;;;5086671;28;20032;-73
2023/08/10 01:10:10;;;;;;;5.53;2.60;;;14.40;99.90;;;;;;5070546;28;20474;-72
2023/08/10 01:13:00;;;;;;;7.25;2.45;;;14.40;99.90;;;;;;5086032;28;20039;-73
2023/08/10 01:15:37;;;;;;;5.50;2.58;;;14.40;99.90;;;;;;5066288;28;20115;-73
2023/08/10 01:18:09;;;;;;;5.32;2.20;;;14.40;99.90;;;;;;5072974;28;20040;-73
2023/08/10 01:20:35;;;;;;;12.02;2.97;;;14.50;99.90;;;;;;5087000;28;20045;-74
2023/08/10 01:23:22;;;;;;;6.78;2.85;;;14.50;99.90;;;;;;5069600;28;20115;-74
2023/08/10 01:25:48;;;;;;;8.65;3.28;;;14.40;99.90;;;;;;5067811;28;20028;-74
2023/08/10 01:28:14;;;;;;;6.85;2.78;;;14.40;99.90;;;;;;5073906;28;20105;-73
2023/08/10 01:30:41;;;;;;;5.40;2.42;;;14.40;99.90;;;;;;5073216;28;20123;-74
2023/08/10 01:33:08;;;;;;;5.93;2.67;;;14.50;99.90;;;;;;5072169;28;20425;-73
2023/08/10 01:35:35;;;;;;;8.90;2.63;;;14.50;99.90;;;;;;5071133;28;20044;-74
2023/08/10 01:38:01;;;;;;;5.03;2.40;;;14.50;99.90;;;;;;5075660;28;20032;-72
2023/08/10 01:40:26;;;;;;;4.18;2.08;;;14.40;99.90;;;;;;5072294;28;20040;-73
2023/08/10 01:42:52;;;;;;;3.70;2.22;;;14.40;99.90;;;;;;5072197;28;20115;-73
2023/08/10 01:45:18;;;;;;;5.65;2.20;;;14.40;99.90;;;;;;5072994;28;20118;-73
2023/08/10 01:47:52;;;;;;;5.82;2.30;;;14.50;99.90;;;;;;5071371;28;20495;-73
2023/08/10 01:50:19;;;;;;;3.97;2.30;;;14.40;99.90;;;;;;5087494;28;20036;-74
2023/08/10 01:53:15;;;;;;;5.57;2.13;;;14.30;99.90;;;;;;5071476;28;20040;-73
2023/08/10 01:55:41;;;;;;;3.45;2.33;;;14.20;99.90;;;;;;5088139;28;20032;-73
2023/08/10 01:58:07;;;;;;;5.70;2.10;;;14.20;99.90;;;;;;5069267;28;20055;-73
2023/08/10 02:00:37;;;;;;;6.03;2.33;;;14.20;99.90;;;;;;5063654;28;20442;-74
2023/08/10 02:03:03;;;;;;;6.60;2.33;;;14.20;99.90;;;;;;5056468;28;20034;-74
2023/08/10 02:05:29;;;;;;;4.22;2.50;;;14.10;99.90;;;;;;5089322;28;20036;-73
2023/08/10 02:07:54;;;;;;;3.17;2.00;;;14.10;99.90;;;;;;5062817;28;20051;-74
2023/08/10 02:10:20;;;;;;;4.40;2.70;;;14.00;99.90;;;;;;5062868;28;20043;-73
2023/08/10 02:12:46;;;;;;;4.72;2.25;;;14.00;99.90;;;;;;5066392;28;20098;-74
2023/08/10 02:15:12;;;;;;;6.50;2.58;;;14.00;99.90;;;;;;5088140;28;20036;-73
2023/08/10 02:17:38;;;;;;;3.88;2.70;;;13.90;99.90;;;;;;5065645;28;20688;-73
2023/08/10 02:20:14;;;;;;;6.40;2.38;;;13.70;99.90;;;;;;5073932;28;20032;-73
2023/08/10 02:22:48;;;;;;;5.18;2.30;;;13.60;99.90;;;;;;5089153;28;20077;-74
2023/08/10 02:25:14;;;;;;;5.13;2.30;;;13.60;99.90;;;;;;5071155;28;20051;-73
2023/08/10 02:27:41;;;;;;;8.10;2.60;;;13.60;99.90;;;;;;5064809;28;20040;-73
2023/08/10 02:30:08;;;;;;;5.53;2.67;;;13.60;99.90;;;;;;5077808;28;20073;-74
2023/08/10 02:32:34;;;;;;;7.10;2.75;;;13.50;99.90;;;;;;5069176;28;20040;-74
2023/08/10 02:35:00;;;;;;;6.50;2.78;;;13.50;99.90;;;;;;5086861;28;20498;-74
2023/08/10 02:37:25;;;;;;;5.47;2.60;;;13.50;99.90;;;;;;5068207;28;20047;-73
2023/08/10 02:39:51;;;;;;;9.18;3.85;;;13.50;99.90;;;;;;5076053;28;20048;-74
2023/08/10 02:42:16;;;;;;;6.82;2.97;;;13.50;99.90;;;;;;5089200;28;20047;-73
2023/08/10 02:44:43;;;;;;;6.13;2.47;;;13.60;99.90;;;;;;5071142;28;20164;-73
2023/08/10 02:47:09;;;;;;;6.50;2.65;;;13.60;99.90;;;;;;5066997;28;20097;-73
2023/08/10 02:49:34;;;;;;;7.03;3.00;;;13.60;99.90;;;;;;5090893;28;20044;-73
2023/08/10 02:52:00;;;;;;;7.97;2.85;;;13.60;99.90;;;;;;5067942;28;20628;-74
2023/08/10 02:54:25;;;;;;;5.88;2.45;;;13.70;99.90;;;;;;5090560;28;20136;-74
2023/08/10 02:56:51;;;;;;;7.50;2.83;;;13.70;99.90;;;;;;5074986;28;20414;-73
2023/08/10 02:59:16;;;;;;;5.57;2.88;;;13.80;99.90;;;;;;5074231;28;20418;-73
2023/08/10 03:01:45;;;;;;;7.75;3.28;;;13.80;99.90;;;;;;5073691;28;20055;-74
2023/08/10 03:04:11;;;;;;;4.03;2.38;;;13.80;99.90;;;;;;5074944;28;20089;-74
2023/08/10 03:06:37;;;;;;;6.47;3.17;;;13.80;99.90;;;;;;5074225;28;20036;-74
2023/08/10 03:09:04;;;;;;;5.00;2.83;;;13.80;99.90;;;;;;5072966;28;20517;-74
2023/08/10 03:11:30;;;;;;;6.95;3.10;;;13.80;99.90;;;;;;5074979;28;20533;-74
2023/08/10 03:13:56;;;;;;;5.82;2.70;;;13.90;99.90;;;;;;5073856;28;20039;-73
2023/08/10 03:16:21;;;;;;;7.05;3.45;;;13.90;99.90;;;;;;5087833;28;20093;-74
2023/08/10 03:18:47;;;;;;;7.63;3.22;;;13.90;99.90;;;;;;5090629;28;20066;-73
2023/08/10 03:21:13;;;;;;;9.25;3.58;;;13.90;99.90;;;;;;5089590;28;20411;-74
2023/08/10 03:23:38;;;;;;;5.47;2.78;;;13.90;99.90;;;;;;5091382;28;20375;-74
2023/08/10 03:26:04;;;;;;;5.25;3.17;;;13.90;99.90;;;;;;5074483;28;20512;-73
2023/08/10 03:28:29;;;;;;;7.32;2.85;;;14.00;99.90;;;;;;5066729;28;20044;-74
2023/08/10 03:30:55;;;;;;;8.35;3.72;;;14.00;99.90;;;;;;5084377;28;20434;-74
2023/08/10 03:33:20;;;;;;;5.35;2.72;;;14.00;99.90;;;;;;5064670;28;20518;-74
2023/08/10 03:35:46;;;;;;;5.53;3.20;;;14.00;99.90;;;;;;5091859;28;20047;-74
2023/08/10 03:38:12;;;;;;;6.30;2.75;;;14.00;99.90;;;;;;5083602;28;20036;-74
2023/08/10 03:40:38;;;;;;;4.43;3.13;;;14.00;99.90;;;;;;5080981;28;20039;-74
2023/08/10 03:43:03;;;;;;;6.97;3.08;;;13.90;99.90;;;;;;5063177;28;20162;-74
2023/08/10 03:45:29;;;;;;;6.55;3.20;;;14.00;99.90;;;;;;5084286;28;20032;-74
2023/08/10 03:47:55;;;;;;;6.22;3.15;;;14.00;99.90;;;;;;5075163;28;20032;-74
2023/08/10 03:50:20;;;;;;;6.53;3.00;;;14.00;99.90;;;;;;5064705;28;20043;-73
2023/08/10 03:52:46;;;;;;;4.18;2.95;;;14.00;99.90;;;;;;5069215;28;20094;-74
2023/08/10 03:55:12;;;;;;;5.97;3.00;;;14.10;99.90;;;;;;5083524;28;20036;-74
2023/08/10 03:57:38;;;;;;;7.50;3.17;;;14.10;99.90;;;;;;5064923;28;20052;-74
2023/08/10 04:00:05;;;;;;;6.05;3.00;;;14.10;99.90;;;;;;5060625;28;20032;-74
2023/08/10 04:02:30;;;;;;;5.03;3.25;;;14.10;99.90;;;;;;5070362;28;20029;-74
2023/08/10 04:04:56;;;;;;;5.50;3.10;;;14.10;99.90;;;;;;5067969;28;20040;-74
2023/08/10 04:07:22;;;;;;;6.63;2.90;;;14.10;99.90;;;;;;5084668;28;20047;-74
2023/08/10 04:09:47;;;;;;;5.68;2.75;;;14.10;99.90;;;;;;5066333;28;20468;-74
2023/08/10 04:12:13;;;;;;;4.30;2.97;;;14.10;99.90;;;;;;5073350;28;20059;-74
2023/08/10 04:14:39;;;;;;;5.80;3.58;;;14.10;99.90;;;;;;5065668;28;20071;-74
2023/08/10 04:17:04;;;;;;;4.78;2.67;;;14.20;99.90;;;;;;5080468;28;20123;-74
2023/08/10 04:19:30;;;;;;;7.50;2.88;;;14.20;99.90;;;;;;5065151;28;20453;-74
2023/08/10 04:21:56;;;;;;;5.88;2.67;;;14.10;99.90;;;;;;5062209;28;20047;-74
2023/08/10 04:24:22;;;;;;;6.18;2.88;;;14.10;99.90;;;;;;5072571;28;20036;-74
2023/08/10 04:26:47;;;;;;;7.80;2.63;;;14.10;99.90;;;;;;5072002;28;20131;-74
2023/08/10 04:29:13;;;;;;;6.97;3.22;;;14.10;99.90;;;;;;5065256;28;20052;-74
2023/08/10 04:31:40;;;;;;;4.50;2.50;;;14.10;99.90;;;;;;5069039;28;20565;-74
2023/08/10 04:34:05;;;;;;;4.43;2.58;;;14.10;99.90;;;;;;5072953;28;20068;-74
2023/08/10 04:36:33;;;;;;;5.63;2.63;;;14.10;99.90;;;;;;5063885;28;20121;-74
2023/08/10 04:38:59;;;;;;;6.05;3.03;;;14.10;99.90;;;;;;5087441;28;20530;-74
2023/08/10 04:41:24;;;;;;;6.22;2.78;;;14.10;99.90;;;;;;5062580;28;20036;-74
2023/08/10 04:43:50;;;;;;;4.72;2.72;;;14.10;99.90;;;;;;5086919;28;20193;-74
2023/08/10 04:46:15;;;;;;;5.07;2.53;;;14.10;99.90;;;;;;5065709;28;20441;-74
2023/08/10 04:48:41;;;;;;;6.60;2.75;;;14.10;99.90;;;;;;5072502;28;20036;-74
2023/08/10 04:51:07;;;;;;;5.63;2.90;;;14.10;99.90;;;;;;5074111;28;20078;-74
2023/08/10 04:53:32;;;;;;;5.07;2.70;;;14.10;99.90;;;;;;5069608;28;20040;-74
2023/08/10 04:55:59;;;;;;;9.00;3.08;;;14.10;99.90;;;;;;5070716;28;20039;-74
2023/08/10 04:58:24;;;;;;;6.93;2.75;;;14.10;99.90;;;;;;5071880;28;20480;-74
2023/08/10 05:00:52;;;;;;;6.07;3.13;;;14.10;99.90;;;;;;5068726;28;20032;-74
2023/08/10 05:03:20;;;;;;;6.72;3.47;;;14.10;99.90;;;;;;5062983;28;20039;-74
2023/08/10 05:05:45;;;;;;;5.07;2.85;;;14.10;99.90;;;;;;5062072;28;20467;-75
2023/08/10 05:08:11;;;;;;;7.18;2.88;;;14.20;99.90;;;;;;5065416;28;20063;-74
2023/08/10 05:10:37;;;;;;;6.15;3.00;;;14.20;99.90;;;;;;5070903;28;20131;-74
2023/08/10 05:13:04;;;;;;;5.25;2.83;;;14.30;99.90;;;;;;5065129;28;20055;-74
2023/08/10 05:15:30;;;;;;;5.47;3.33;;;14.30;99.90;;;;;;5082030;28;20499;-74
2023/08/10 05:17:55;;;;;;;4.45;2.70;;;14.30;99.90;;;;;;5059664;28;20032;-74
2023/08/10 05:20:21;;;;;;;5.15;2.95;;;14.30;99.90;;;;;;5066495;28;20039;-75
2023/08/10 05:22:49;;;;;;;5.65;3.05;;;14.40;99.90;;;;;;5070500;28;20045;-75
2023/08/10 05:25:14;;;;;;;5.25;2.80;;;14.40;99.90;;;;;;5073044;28;20463;-74
2023/08/10 05:27:40;;;;;;;6.10;2.80;;;14.50;99.90;;;;;;5071083;28;20122;-74
2023/08/10 05:30:13;;;;;;;4.57;2.90;;;14.50;99.90;;;;;;5073281;28;21538;-74
2023/08/10 05:32:42;;;;;;;4.80;2.60;;;14.60;99.90;;;;;;5071846;28;20637;-74
2023/08/10 05:35:08;;;;;;;5.63;2.72;;;14.60;99.90;;;;;;5069024;28;20035;-74
2023/08/10 05:37:35;;;;;;;5.85;3.10;;;14.70;99.90;;;;;;5071697;28;20032;-74
2023/08/10 05:40:01;;;;;;;6.07;3.05;;;14.70;99.90;;;;;;5093321;28;20032;-74
2023/08/10 05:42:27;;;;;;;5.95;2.75;;;14.70;99.90;;;;;;5071596;28;20085;-74
2023/08/10 05:44:52;;;;;;;5.85;3.05;;;14.80;99.90;;;;;;5069794;28;20507;-73
2023/08/10 05:47:18;;;;;;;9.80;2.97;;;14.80;99.90;;;;;;5065803;28;20043;-74
2023/08/10 05:49:43;;;;;;;3.55;2.40;;;14.80;99.90;;;;;;5071003;28;20519;-74
2023/08/10 05:52:09;;;;;;;7.35;2.90;;;14.80;99.90;;;;;;5085353;28;20044;-74
2023/08/10 05:54:34;;;;;;;4.38;2.50;;;14.90;99.90;;;;;;5060114;28;20063;-74
2023/08/10 05:57:00;;;;;;;6.38;2.80;;;14.90;99.90;;;;;;5066579;28;20035;-75
2023/08/10 05:59:26;;;;;;;4.18;2.90;;;14.90;99.90;;;;;;5069841;28;20040;-75
2023/08/10 06:01:52;;;;;;;5.40;2.53;;;14.90;99.90;;;;;;5063135;28;20150;-74
2023/08/10 06:04:18;;;;;;;4.45;2.50;;;14.90;99.90;;;;;;5062005;28;20466;-74
2023/08/10 06:06:44;;;;;;;7.65;2.90;;;14.90;99.90;;;;;;5066385;28;20036;-74
2023/08/10 06:09:11;;;;;;;6.68;2.83;;;15.00;99.90;;;;;;5052720;28;20044;-74
2023/08/10 06:11:37;;;;;;;5.60;3.00;;;15.20;99.90;;;;;;5087833;28;20128;-74
2023/08/10 06:14:03;;;;;;;7.22;2.80;;;15.40;99.90;;;;;;5073927;28;20038;-74
2023/08/10 06:16:29;;;;;;;5.75;2.88;;;15.70;99.90;;;;;;5070455;28;20051;-74
2023/08/10 06:18:55;;;;;;;9.35;3.00;;;15.80;99.90;;;;;;5064636;28;20032;-74
2023/08/10 06:21:20;;;;;;;7.30;2.40;;;16.00;99.90;;;;;;5061554;28;20081;-74
2023/08/10 06:23:46;;;;;;;6.65;2.45;;;16.10;99.90;;;;;;5065806;28;20483;-74
2023/08/10 06:26:12;;;;;;;8.65;2.78;;;16.20;99.90;;;;;;5072459;28;20106;-74
2023/08/10 06:28:38;;;;;;;8.70;2.78;;;16.30;99.90;;;;;;5087896;28;20059;-74
2023/08/10 06:31:09;;;;;;;4.95;2.10;;;16.50;99.90;;;;;;5068455;28;20066;-74
2023/08/10 06:33:35;;;;;;;5.43;2.25;;;16.60;99.90;;;;;;5069416;28;20048;-75
2023/08/10 06:36:01;;;;;;;3.83;2.17;;;16.60;99.90;;;;;;5070709;28;20529;-74
2023/08/10 06:38:26;;;;;;;8.65;2.65;;;16.80;99.90;;;;;;5072306;28;20040;-75
2023/08/10 06:40:53;;;;;;;2.58;1.80;;;16.90;99.90;;;;;;5054755;28;20036;-74
2023/08/10 06:43:19;;;;;;;5.53;2.15;;;17.00;99.90;;;;;;5090282;28;20115;-75
2023/08/10 06:45:44;;;;;;;3.90;1.92;;;17.00;99.90;;;;;;5088987;28;20154;-75
2023/08/10 06:48:11;;;;;;;7.60;1.95;;;17.20;99.90;;;;;;5070784;28;20414;-74
2023/08/10 06:50:37;;;;;;;4.15;1.50;;;17.20;99.90;;;;;;5088256;28;20568;-75
2023/08/10 06:53:03;;;;;;;7.68;1.95;;;17.30;99.90;;;;;;5089677;28;20040;-74
2023/08/10 06:55:30;;;;;;;6.28;1.48;;;17.30;99.90;;;;;;5068451;28;20074;-76
2023/08/10 06:57:56;;;;;;;3.38;1.40;;;17.30;99.90;;;;;;5087501;28;20123;-73
2023/08/10 07:00:24;;;;;;;2.85;1.10;;;17.30;99.90;;;;;;5088109;28;20100;-74
2023/08/10 07:02:53;;;;;;;5.82;1.70;;;17.40;99.90;;;;;;5087504;28;20502;-74
2023/08/10 07:05:23;;;;;;;5.57;1.40;;;17.50;99.90;;;;;;5075377;28;20044;-76
2023/08/10 07:07:49;;;;;;;7.50;1.73;;;17.60;99.90;;;;;;5059111;28;20047;-74
2023/08/10 07:10:15;;;;;;;6.80;1.73;;;17.70;99.90;;;;;;5075728;28;20044;-74
2023/08/10 07:12:42;;;;;;;6.10;1.63;;;17.70;99.90;;;;;;5071251;28;20101;-74
2023/08/10 07:15:08;;;;;;;4.38;1.58;;;17.80;99.90;;;;;;5074982;28;20047;-77
2023/08/10 07:17:34;;;;;;;4.50;1.40;;;17.90;99.90;;;;;;5076004;28;20410;-74
2023/08/10 07:19:59;;;;;;;9.63;1.60;;;18.10;99.90;;;;;;5076433;28;20039;-74
2023/08/10 07:22:25;;;;;;;4.25;1.30;;;18.20;99.90;;;;;;5092178;28;20036;-75
2023/08/10 07:24:50;;;;;;;6.43;1.55;;;18.30;99.90;;;;;;5075629;28;20074;-74
2023/08/10 07:27:17;;;;;;;7.32;1.75;;;18.50;99.90;;;;;;5056484;28;20051;-74
2023/08/10 07:29:43;;;;;;;5.55;1.40;;;18.60;99.90;;;;;;5074198;28;20112;-73
2023/08/10 07:32:08;;;;;;;4.18;1.13;;;18.80;99.90;;;;;;5074097;28;20503;-74
2023/08/10 07:34:35;;;;;;;5.03;1.10;;;19.00;99.90;;;;;;5074911;28;20081;-75
2023/08/10 07:37:00;;;;;;;3.70;1.17;;;19.10;99.90;;;;;;5074953;28;20047;-75
2023/08/10 07:39:26;;;;;;;7.03;1.48;;;19.10;99.90;;;;;;5074277;28;20036;-74
2023/08/10 07:41:52;;;;;;;3.05;1.20;;;19.00;99.90;;;;;;5075172;28;20028;-77
2023/08/10 07:44:18;;;;;;;4.40;1.10;;;19.10;99.90;;;;;;5074958;28;20407;-74
2023/08/10 07:46:46;;;;;;;3.20;0.80;;;19.00;99.90;;;;;;5070826;28;20036;-75
2023/08/10 07:49:12;;;;;;;3.50;1.02;;;19.10;99.90;;;;;;5072317;28;20048;-74
2023/08/10 07:51:38;;;;;;;4.30;1.02;;;19.00;99.90;;;;;;5089723;28;20047;-74
2023/08/10 07:54:04;;;;;;;3.67;0.90;;;19.10;99.90;;;;;;5073061;28;20036;-75
2023/08/10 07:56:30;;;;;;;7.40;1.00;;;18.90;99.90;;;;;;5075231;28;20050;-75
2023/08/10 07:58:55;;;;;;;4.30;1.02;;;18.80;99.90;;;;;;5076506;28;20100;-75
2023/08/10 08:01:21;;;;;;;2.83;0.82;;;18.80;99.90;;;;;;5077627;28;20101;-73
2023/08/10 08:03:46;;;;;;;5.03;1.20;;;18.70;99.90;;;;;;5089718;28;20449;-75
2023/08/10 08:06:12;;;;;;;3.50;1.05;;;18.60;99.90;;;;;;5088304;28;20532;-77
2023/08/10 08:08:37;;;;;;;5.47;1.33;;;18.50;99.90;;;;;;5075386;28;20043;-74
2023/08/10 08:11:03;;;;;;;6.55;1.13;;;18.50;99.90;;;;;;5070017;28;20129;-74
2023/08/10 08:13:29;;;;;;;2.15;0.85;;;18.40;99.90;;;;;;5074820;28;20036;-75
2023/08/10 08:15:54;;;;;;;7.13;1.27;;;18.40;99.90;;;;;;5075091;28;20050;-75
2023/08/10 08:18:40;;;;;;;4.78;1.20;;;18.40;99.90;;;;;;5074724;28;20392;-75
2023/08/10 08:21:05;;;;;;;3.83;1.17;;;18.40;99.90;;;;;;5093093;28;20036;-75
2023/08/10 08:23:31;;;;;;;3.25;1.20;;;18.40;99.90;;;;;;5092477;28;20388;-75
2023/08/10 08:25:57;;;;;;;4.47;1.42;;;18.30;99.90;;;;;;5073861;28;20081;-75
2023/08/10 08:28:23;;;;;;;5.70;1.08;;;18.40;99.90;;;;;;5072618;28;20038;-75
2023/08/10 08:30:52;;;;;;;4.07;1.55;;;18.30;99.90;;;;;;5067791;28;20063;-74
2023/08/10 08:33:18;;;;;;;5.03;1.30;;;18.40;99.90;;;;;;5054748;28;20139;-75
2023/08/10 08:35:45;;;;;;;4.28;1.23;;;18.40;99.90;;;;;;5078943;28;20047;-75
2023/08/10 08:38:14;;;;;;;5.18;1.35;;;18.40;99.90;;;;;;5074379;28;20111;-75
2023/08/10 08:40:44;;;;;;;3.20;0.93;;;18.40;99.90;;;;;;5092545;28;20115;-75
2023/08/10 08:43:10;;;;;;;4.13;1.02;;;18.40;99.90;;;;;;5074330;28;20046;-74
2023/08/10 08:45:36;;;;;;;5.38;1.42;;;18.40;99.90;;;;;;5072897;28;20123;-75
2023/08/10 08:48:05;;;;;;;6.70;1.50;;;18.40;99.90;;;;;;5072083;28;20455;-74
2023/08/10 08:50:31;;;;;;;4.57;1.15;;;18.40;99.90;;;;;;5092590;28;20115;-76
2023/08/10 08:52:59;;;;;;;2.65;0.98;;;18.50;99.90;;;;;;5092469;28;20048;-75
2023/08/10 08:55:25;;;;;;;3.60;1.10;;;18.50;99.90;;;;;;5092181;28;20093;-78
2023/08/10 08:57:51;;;;;;;8.80;1.25;;;18.50;99.90;;;;;;5090677;28;20451;-76
2023/08/10 09:00:17;;;;;;;3.10;1.20;;;18.60;99.90;;;;;;5092069;28;20036;-75
2023/08/10 09:02:43;;;;;;;5.43;1.08;;;18.70;99.90;;;;;;5073819;28;20107;-74
2023/08/10 09:05:08;;;;;;;4.80;1.20;;;18.80;99.90;;;;;;5073278;28;20039;-75
2023/08/10 09:07:34;;;;;;;5.38;1.38;;;18.90;99.90;;;;;;5087082;28;20491;-75
2023/08/10 09:10:00;;;;;;;3.92;1.13;;;18.90;99.90;;;;;;5053670;28;20048;-75
2023/08/10 09:12:38;;;;;;;3.92;1.10;;;18.90;99.90;;;;;;5089757;28;20036;-75
2023/08/10 09:15:04;;;;;;;4.82;1.10;;;19.00;99.90;;;;;;5072235;28;20043;-75
2023/08/10 09:17:53;;;;;;;6.50;1.10;;;19.10;99.90;;;;;;5071741;28;20036;-75
2023/08/10 09:20:27;;;;;;;2.58;1.00;;;19.20;99.90;;;;;;5072967;28;20694;-75
2023/08/10 09:22:55;;;;;;;3.80;1.10;;;19.30;99.90;;;;;;5072451;28;20044;-75
2023/08/10 09:25:21;;;;;;;4.68;1.00;;;19.40;99.90;;;;;;5071196;28;20051;-75
2023/08/10 09:27:48;;;;;;;3.22;0.85;;;19.50;99.90;;;;;;5071404;28;20036;-75
2023/08/10 09:30:14;;;;;;;5.25;0.90;;;19.50;99.90;;;;;;5071280;28;20117;-75
2023/08/10 09:32:40;;;;;;;3.28;1.10;;;19.50;99.90;;;;;;5073203;28;20038;-75
2023/08/10 09:35:11;;;;;;;3.55;1.00;;;19.60;99.90;;;;;;5073190;28;20032;-75
2023/08/10 09:37:37;;;;;;;8.07;1.27;;;19.70;99.90;;;;;;5056299;28;20521;-74
2023/08/10 09:40:06;;;;;;;3.72;1.02;;;19.80;99.90;;;;;;5073492;28;20122;-75
2023/08/10 09:42:33;;;;;;;3.45;0.93;;;19.80;99.90;;;;;;5056782;28;20070;-75
2023/08/10 09:45:04;;;;;;;2.38;1.05;;;19.80;99.90;;;;;;5056666;28;20530;-75
2023/08/10 09:47:35;;;;;;;2.70;1.17;;;19.80;99.90;;;;;;5073456;28;20072;-75
2023/08/10 09:50:05;;;;;;;4.45;1.33;;;19.80;99.90;;;;;;5073245;28;20036;-75
2023/08/10 09:52:31;;;;;;;4.32;1.10;;;19.70;99.90;;;;;;5073338;28;20040;-75
2023/08/10 09:54:57;;;;;;;3.95;1.20;;;19.70;99.90;;;;;;5073496;28;20445;-75
2023/08/10 09:57:24;;;;;;;5.25;1.40;;;19.70;99.90;;;;;;5073105;28;20502;-75
2023/08/10 09:59:51;;;;;;;4.10;1.00;;;19.70;99.90;;;;;;5073186;28;20411;-75
2023/08/10 10:02:18;;;;;;;4.40;1.27;;;19.70;99.90;;;;;;5073182;28;20495;-74
2023/08/10 10:04:44;;;;;;;7.40;1.30;;;19.70;99.90;;;;;;5073220;28;20028;-75
2023/08/10 10:07:11;;;;;;;7.22;1.17;;;19.60;99.90;;;;;;5072896;28;20040;-75
2023/08/10 10:09:38;;;;;;;3.17;0.90;;;19.70;99.90;;;;;;5073349;28;20415;-74
2023/08/10 10:12:07;;;;;;;6.47;1.20;;;19.70;99.90;;;;;;5073549;28;20036;-75
2023/08/10 10:14:44;;;;;;;3.65;1.00;;;19.70;99.90;;;;;;5073156;28;20429;-75
2023/08/10 10:17:12;;;;;;;2.58;1.10;;;19.60;99.90;;;;;;5091174;28;20552;-75
2023/08/10 10:19:38;;;;;;;4.03;0.95;;;19.70;99.90;;;;;;5074209;28;20032;-75
2023/08/10 10:22:05;;;;;;;3.05;0.98;;;19.70;99.90;;;;;;5074085;28;20517;-75
2023/08/10 10:24:33;;;;;;;6.25;1.25;;;19.70;99.90;;;;;;5057016;28;20036;-75
2023/08/10 10:27:10;;;;;;;4.70;1.35;;;19.70;99.90;;;;;;5096633;28;20165;-75
2023/08/10 10:29:40;;;;;;;6.68;1.20;;;19.70;99.90;;;;;;5070784;28;20592;-75
2023/08/10 10:32:10;;;;;;;3.60;1.00;;;19.70;99.90;;;;;;5071538;28;20040;-75
2023/08/10 10:34:37;;;;;;;2.83;1.10;;;19.70;99.90;;;;;;5071120;28;20096;-75
2023/08/10 10:37:16;;;;;;;7.85;1.23;;;19.80;99.90;;;;;;5074725;28;20040;-75
2023/08/10 10:39:48;;;;;;;4.57;1.20;;;19.80;99.90;;;;;;5076383;28;20044;-75
2023/08/10 10:42:16;;;;;;;6.22;1.67;;;19.90;99.90;;;;;;5076707;28;20047;-75
2023/08/10 10:44:59;;;;;;;4.85;1.30;;;20.00;99.90;;;;;;5092768;28;20038;-75
2023/08/10 10:47:40;;;;;;;6.80;1.38;;;20.30;99.90;;;;;;5074434;28;21006;-75
2023/08/10 10:50:14;;;;;;;4.63;1.30;;;20.50;99.90;;;;;;5075573;28;20081;-76
2023/08/10 10:52:40;;;;;;;3.65;1.23;;;20.50;99.90;;;;;;5076492;28;20036;-75
2023/08/10 10:55:09;;;;;;;4.75;1.42;;;20.60;99.90;;;;;;5095658;28;20471;-75
2023/08/10 10:57:38;;;;;;;3.78;1.60;;;20.70;99.90;;;;;;5071782;28;20519;-75
2023/08/10 11:00:05;;;;;;;3.85;1.25;;;20.60;99.90;;;;;;5074583;28;20600;-75
2023/08/10 11:02:31;;;;;;;6.47;1.25;;;20.60;99.90;;;;;;5072878;28;20051;-76
2023/08/10 11:04:57;;;;;;;4.00;1.17;;;20.60;99.90;;;;;;5072105;28;20028;-75
2023/08/10 11:07:23;;;;;;;3.28;1.23;;;20.50;99.90;;;;;;5072839;28;20042;-75
2023/08/10 11:09:48;;;;;;;5.82;1.20;;;20.60;99.90;;;;;;5076319;28;20447;-75
2023/08/10 11:12:17;;;;;;;4.43;1.25;;;20.60;99.90;;;;;;5076012;28;20051;-75
2023/08/10 11:14:42;;;;;;;4.28;1.20;;;20.70;99.90;;;;;;5075942;28;20115;-75
2023/08/10 11:17:09;;;;;;;4.78;1.20;;;20.60;99.90;;;;;;5075709;28;20131;-75
2023/08/10 11:19:34;;;;;;;4.95;1.17;;;20.60;99.90;;;;;;5075019;28;20073;-75
2023/08/10 11:22:00;;;;;;;8.65;1.70;;;20.70;99.90;;;;;;5070721;28;20122;-74
2023/08/10 11:24:29;;;;;;;2.58;1.08;;;20.70;99.90;;;;;;5093008;28;20392;-75
2023/08/10 11:26:56;;;;;;;3.97;1.60;;;20.70;99.90;;;;;;5075336;28;20067;-75
2023/08/10 11:29:22;;;;;;;4.72;1.50;;;20.70;99.90;;;;;;5067370;28;20097;-75
2023/08/10 11:31:49;;;;;;;4.03;1.38;;;20.80;99.90;;;;;;5074159;28;20123;-75
2023/08/10 11:34:23;;;;;;;6.10;1.50;;;20.80;99.90;;;;;;5075818;28;20493;-75
2023/08/10 11:36:50;;;;;;;2.35;1.20;;;20.80;99.90;;;;;;5091575;28;20036;-75
2023/08/10 11:39:16;;;;;;;4.82;1.40;;;20.80;99.90;;;;;;5075436;28;20048;-75
2023/08/10 11:41:43;;;;;;;3.67;1.50;;;20.80;99.90;;;;;;5075418;28;20039;-75
2023/08/10 11:44:09;;;;;;;4.95;1.60;;;20.80;99.90;;;;;;5078745;28;20407;-75
2023/08/10 11:46:34;;;;;;;3.67;1.25;;;20.80;99.90;;;;;;5093016;28;20028;-75
2023/08/10 11:49:00;;;;;;;4.97;1.30;;;20.70;99.90;;;;;;5075111;28;20540;-75
2023/08/10 11:51:36;;;;;;;3.22;1.35;;;20.70;99.90;;;;;;5069851;28;20071;-75
2023/08/10 11:54:08;;;;;;;6.45;1.65;;;20.80;99.90;;;;;;5070828;28;20047;-76
2023/08/10 11:56:41;;;;;;;5.55;1.13;;;20.80;99.90;;;;;;5070648;28;20064;-75
2023/08/10 11:59:12;;;;;;;3.22;1.20;;;20.90;99.90;;;;;;5073607;28;20043;-75
2023/08/10 12:01:54;;;;;;;4.45;1.42;;;20.90;99.90;;;;;;5093578;28;20059;-75
2023/08/10 12:04:20;;;;;;;4.05;1.27;;;21.00;99.90;;;;;;5072127;28;20124;-75
2023/08/10 12:06:46;;;;;;;4.13;1.30;;;21.00;99.90;;;;;;5074999;28;20427;-75
2023/08/10 12:09:12;;;;;;;5.32;1.40;;;21.00;99.90;;;;;;5074939;28;20052;-75
2023/08/10 12:11:47;;;;;;;7.32;1.60;;;20.80;99.90;;;;;;5072713;28;20082;-75
2023/08/10 12:14:13;;;;;;;4.20;1.33;;;20.80;99.90;;;;;;5073769;28;20052;-75
2023/08/10 12:16:38;;;;;;;7.00;1.55;;;20.50;99.90;;;;;;5074519;28;20054;-75
2023/08/10 12:19:04;;;;;;;8.27;1.45;;;20.50;99.90;;;;;;5073020;28;20066;-75
2023/08/10 12:21:30;;;;;;;3.80;1.50;;;20.40;99.90;;;;;;5073805;28;20047;-75
2023/08/10 12:23:55;;;;;;;3.90;1.70;;;20.30;99.90;;;;;;5090911;28;20033;-75
2023/08/10 12:26:22;;;;;;;5.38;1.75;;;20.30;99.90;;;;;;5067367;28;20047;-75
2023/08/10 12:28:47;;;;;;;5.20;1.70;;;20.40;99.90;;;;;;5063718;28;20136;-75
2023/08/10 12:31:13;;;;;;;6.80;1.42;;;20.30;99.90;;;;;;5073735;28;20047;-75
2023/08/10 12:33:40;;;;;;;3.50;1.38;;;20.20;99.90;;;;;;5072396;28;20127;-76
2023/08/10 12:36:07;;;;;;;4.47;1.63;;;20.20;99.90;;;;;;5072074;28;20043;-75
2023/08/10 12:38:32;;;;;;;5.90;1.65;;;20.10;99.90;;;;;;5072067;28;20044;-75
2023/08/10 12:40:58;;;;;;;4.00;1.60;;;20.10;99.90;;;;;;5064444;28;20062;-75
2023/08/10 12:43:23;;;;;;;4.57;1.58;;;20.00;99.90;;;;;;5072445;28;20134;-75
2023/08/10 12:45:49;;;;;;;7.10;1.95;;;20.00;99.90;;;;;;5072052;28;20036;-75
2023/08/10 12:48:15;;;;;;;5.68;1.75;;;20.00;99.90;;;;;;5073187;28;20495;-75